Hovedside
METAR-TAF:

METAR-TAF

Lufthavner :

Hammerfest, Norge

Hammerfest lufthavn

breddegrad: 70-40N, lengdegrad: 023-40E, høyde over havet: 8 m

Gjeldene værobservasjon

Denne rapporten ble laget for 50 minutter siden, klokken 21:50 UTC
Vind 1 kt fra skiftende retning
Temperatur 10°C
Luftfuktighet 87%
Trykk 1019 hPa
Sikt 10 km eller mer
Få skyer
Spredte skyer i en høyde av 23000 ft
tåke i nærheten

METAR: ENHF 242150Z VRB01KT 9999 VCFG FEW/// SCT230 10/08 Q1019 RMK WIND 1254FT 10004KT

Tid: 00:40 (22:40 UTC)

Varsel

Denne rapporten ble laget for 2 timer og 40 minutter siden, klokken 20:00 UTC
Varsel gyldig fra 24. klokken 21 UTC til 25. klokken 06 UTC
Vind 8 kt fra Øst-nordøst
Sikt 10 km eller mer
ingen skyer under 1500 m og ingen bygeskyer
Sannsynlighet 30% :
Midlertidig
fra 24. klokken 21 UTC til 25. klokken 06 UTC
Sikt: 0500 m
i en høyde av 300 ft
tåke

TAF: ENHF 242000Z 2421/2506 06008KT CAVOK PROB30 TEMPO 2421/2506 0500 FG VV003

Værobservasjoner og værvarsel for over 4000 flyplasser (METAR- og TAF-rapporter).

Tilgjengelige stasjoner er representert av de røde og gule prikkene på kartet.

Hold musepekeren over prikken for å se navnet på stasjonen.

Klikk så for å se værobservasjoner og -varsler.

For å forandre kartet kan du klikke på den grønne knappen med svart kryss for å zoome inn, på den grønne knappen med strek for å zoome ut, eller på de grønne pilene for å se tilstøtende kart.


METAR-TAF: